Kila, Montana
Current Conditions -  °F | °C
As of 12:55 PM on Tuesday 21 Oct 2014 (Local Time) from KGPI Reporting Station
Overcast Overcast  
Wind Chill: 51°   Ceiling: 10000
Heat Index: 51°   Visibility: 10mi
Dew Point: 47°   Wind: 7mph
Humidity: 86%   Direction: 160°SSE
Pressure: 29.82"   Gusts: NA
Location:  48.12°N, 114.47°W
Report Text: KGPI 211855Z 16006KT 10SM FEW048 SCT055 OVC100 11/08 A2982 RMK AO2 RAE23 SLP108 P0001 T01060083
Loading
Personal Weather Stations






























Interactive Weather Map
Tropical Storm Tracking
New forecast layout! Learn more

10-Day Weather Forecast

Advertisements
Track Severe Weather on mobile